createdAt,value
2017-12-11T00:00:09.049Z,16.00
2017-12-11T00:01:13.970Z,21.00
2017-12-11T00:02:18.125Z,18.00
2017-12-11T00:03:22.309Z,20.50
2017-12-11T00:04:26.466Z,25.00
2017-12-11T00:05:30.764Z,16.00
2017-12-11T00:06:34.983Z,12.50
2017-12-11T00:07:39.582Z,20.00
2017-12-11T00:08:43.804Z,19.50
2017-12-11T00:09:48.007Z,16.00
2017-12-11T00:10:52.146Z,18.00
2017-12-11T00:11:56.298Z,19.00
2017-12-11T00:13:00.577Z,15.00
2017-12-11T00:14:05.053Z,15.00
2017-12-11T00:15:09.980Z,15.50
2017-12-11T00:16:17.749Z,19.50
2017-12-11T00:17:22.285Z,21.00
2017-12-11T00:18:26.466Z,14.00
2017-12-11T00:19:30.712Z,22.50
2017-12-11T00:20:35.019Z,16.50
2017-12-11T00:21:39.172Z,15.00
2017-12-11T00:22:48.441Z,17.50
2017-12-11T00:23:52.584Z,12.00
2017-12-11T00:26:41.286Z,23.00
2017-12-11T00:27:45.633Z,20.50
2017-12-11T00:28:50.118Z,23.00
2017-12-11T00:29:54.553Z,18.50
2017-12-11T00:30:59.015Z,24.00
2017-12-11T00:32:03.386Z,12.50
2017-12-11T00:33:07.944Z,16.00
2017-12-11T00:34:12.290Z,14.50
2017-12-11T00:35:16.537Z,11.00
2017-12-11T00:36:20.846Z,14.50
2017-12-11T00:37:25.204Z,6.00
2017-12-11T00:38:29.411Z,10.00
2017-12-11T00:39:34.014Z,14.00
2017-12-11T00:40:38.369Z,19.50
2017-12-11T00:41:42.734Z,16.50
2017-12-11T00:42:47.643Z,12.00
2017-12-11T00:43:51.932Z,12.00
2017-12-11T00:44:56.215Z,17.00
2017-12-11T00:46:02.548Z,19.50
2017-12-11T00:47:07.388Z,14.50
2017-12-11T00:48:12.576Z,14.00
2017-12-11T00:49:16.877Z,12.00
2017-12-11T00:50:21.121Z,12.50
2017-12-11T00:51:25.376Z,16.00
2017-12-11T00:52:29.841Z,16.00
2017-12-11T00:53:34.199Z,14.50
2017-12-11T00:54:38.484Z,14.00
2017-12-11T00:55:42.850Z,13.50
2017-12-11T00:56:47.603Z,11.50
2017-12-11T00:57:51.893Z,14.50
2017-12-11T00:58:56.495Z,15.00
2017-12-11T01:00:00.753Z,19.00
2017-12-11T01:01:05.275Z,14.50
2017-12-11T01:02:10.531Z,11.50
2017-12-11T01:03:14.758Z,15.00
2017-12-11T01:04:19.488Z,16.50
2017-12-11T01:05:24.057Z,11.00
2017-12-11T01:06:28.387Z,15.00
2017-12-11T01:07:32.745Z,16.50
2017-12-11T01:08:37.054Z,11.00
2017-12-11T01:09:41.410Z,14.50
2017-12-11T01:10:45.942Z,12.50
2017-12-11T01:11:50.617Z,12.00
2017-12-11T01:12:54.894Z,17.00
2017-12-11T01:13:59.236Z,15.00
2017-12-11T01:15:07.162Z,19.50
2017-12-11T01:16:11.409Z,18.00
2017-12-11T01:17:15.964Z,19.50
2017-12-11T01:18:20.296Z,20.50
2017-12-11T01:19:24.544Z,19.50
2017-12-11T01:20:28.763Z,20.00
2017-12-11T01:21:32.964Z,10.00
2017-12-11T01:22:37.303Z,14.00
2017-12-11T01:23:41.893Z,16.00
2017-12-11T01:24:46.884Z,14.50
2017-12-11T01:25:51.138Z,11.50
2017-12-11T01:26:55.386Z,10.00
2017-12-11T01:27:59.692Z,13.50
2017-12-11T01:29:03.930Z,12.50
2017-12-11T01:30:10.010Z,16.50
2017-12-11T01:31:14.379Z,21.00
2017-12-11T01:32:18.853Z,16.00
2017-12-11T01:33:23.065Z,18.50
2017-12-11T01:34:27.453Z,21.00
2017-12-11T01:35:31.662Z,15.00
2017-12-11T01:36:36.324Z,15.00
2017-12-11T01:37:40.586Z,15.50
2017-12-11T01:38:45.360Z,15.50
2017-12-11T01:39:49.608Z,16.50
2017-12-11T01:40:53.938Z,12.50
2017-12-11T01:41:58.234Z,11.50
2017-12-11T01:43:02.509Z,10.00
2017-12-11T01:44:06.824Z,13.00
2017-12-11T01:45:13.319Z,13.00
2017-12-11T01:46:17.568Z,11.00
2017-12-11T01:47:21.791Z,14.50
2017-12-11T01:48:26.022Z,15.00
2017-12-11T01:49:30.728Z,12.00
2017-12-11T01:50:34.969Z,19.00
2017-12-11T01:51:39.214Z,10.50
2017-12-11T01:52:44.602Z,18.00
2017-12-11T01:53:49.625Z,13.50
2017-12-11T01:54:54.387Z,13.00
2017-12-11T01:55:58.989Z,14.50
2017-12-11T01:57:11.239Z,15.50
2017-12-11T01:58:15.484Z,11.00
2017-12-11T01:59:22.335Z,11.00
2017-12-11T02:00:27.021Z,17.50
2017-12-11T02:01:31.268Z,11.50
2017-12-11T02:02:35.497Z,12.00
2017-12-11T02:03:39.825Z,11.50
2017-12-11T02:04:45.524Z,16.50
2017-12-11T02:05:49.769Z,15.00
2017-12-11T02:06:54.037Z,15.50
2017-12-11T02:07:58.607Z,14.50
2017-12-11T02:09:03.549Z,18.00
2017-12-11T02:10:07.846Z,12.00
2017-12-11T02:11:12.144Z,10.00
2017-12-11T02:12:16.388Z,11.50
2017-12-11T02:13:20.636Z,13.00
2017-12-11T02:14:25.209Z,21.00
2017-12-11T02:15:29.874Z,14.50
2017-12-11T02:16:34.247Z,14.50
2017-12-11T02:17:38.456Z,15.50
2017-12-11T02:18:42.659Z,19.00
2017-12-11T02:19:46.977Z,17.50
2017-12-11T02:20:51.504Z,13.00
2017-12-11T02:21:55.886Z,18.00
2017-12-11T02:23:00.096Z,17.50
2017-12-11T02:24:04.393Z,14.00
2017-12-11T02:25:08.771Z,12.50
2017-12-11T02:26:12.991Z,13.00
2017-12-11T02:27:17.566Z,14.00
2017-12-11T02:28:21.904Z,16.00
2017-12-11T02:29:26.205Z,17.50
2017-12-11T02:30:30.444Z,18.50
2017-12-11T02:31:34.713Z,20.50
2017-12-11T02:32:39.033Z,9.00
2017-12-11T02:33:44.221Z,14.00
2017-12-11T02:34:48.492Z,11.50
2017-12-11T02:35:52.807Z,11.00
2017-12-11T02:36:57.238Z,17.50
2017-12-11T02:38:01.610Z,15.00
2017-12-11T02:39:07.142Z,16.50
2017-12-11T02:40:11.707Z,12.00
2017-12-11T02:41:16.051Z,16.50
2017-12-11T02:42:20.326Z,10.00
2017-12-11T02:43:24.599Z,10.00
2017-12-11T02:44:28.881Z,14.00
2017-12-11T02:45:33.460Z,21.00
2017-12-11T02:46:38.668Z,19.50
2017-12-11T02:47:44.020Z,14.00
2017-12-11T02:48:48.244Z,13.50
2017-12-11T02:49:52.573Z,16.50
2017-12-11T02:50:56.837Z,16.00
2017-12-11T02:52:01.133Z,19.00
2017-12-11T02:53:05.977Z,21.00
2017-12-11T02:54:10.290Z,21.50
2017-12-11T02:55:14.591Z,20.00
2017-12-11T02:56:18.866Z,16.50
2017-12-11T02:57:23.077Z,11.00
2017-12-11T02:58:27.335Z,16.00
2017-12-11T02:59:32.005Z,18.50
2017-12-11T03:00:36.497Z,22.50
2017-12-11T03:01:40.687Z,13.50
2017-12-11T03:02:45.809Z,14.50
2017-12-11T03:03:50.165Z,17.00
2017-12-11T03:04:54.416Z,13.50
2017-12-11T03:05:58.971Z,14.50
2017-12-11T03:07:03.234Z,12.00
2017-12-11T03:08:08.246Z,17.00
2017-12-11T03:09:12.589Z,15.50
2017-12-11T03:10:16.780Z,7.00
2017-12-11T03:11:21.145Z,10.00
2017-12-11T03:12:25.825Z,11.00
2017-12-11T03:13:30.133Z,11.50
2017-12-11T03:14:34.495Z,13.00
2017-12-11T03:15:38.731Z,13.00
2017-12-11T03:16:43.075Z,12.50
2017-12-11T03:17:47.347Z,13.00
2017-12-11T03:18:51.568Z,14.00
2017-12-11T03:19:55.887Z,13.00
2017-12-11T03:21:00.165Z,14.50
2017-12-11T03:22:04.472Z,13.00
2017-12-11T03:23:09.561Z,16.00
2017-12-11T03:24:13.832Z,12.00
2017-12-11T03:25:19.330Z,15.00
2017-12-11T03:26:23.635Z,10.00
2017-12-11T03:27:27.898Z,14.00
2017-12-11T03:28:32.108Z,11.00
2017-12-11T03:29:36.436Z,14.50
2017-12-11T03:30:40.969Z,14.50
2017-12-11T03:31:46.339Z,12.00
2017-12-11T03:32:50.656Z,13.50
2017-12-11T03:33:54.898Z,13.50
2017-12-11T03:34:59.180Z,16.00
2017-12-11T03:36:03.453Z,11.50
2017-12-11T03:37:08.118Z,12.50
2017-12-11T03:38:12.643Z,12.50
2017-12-11T03:39:16.921Z,16.00
2017-12-11T03:40:21.195Z,10.00
2017-12-11T03:41:25.452Z,18.00
2017-12-11T03:42:29.652Z,12.50
2017-12-11T03:43:34.249Z,14.50
2017-12-11T03:44:38.491Z,10.00
2017-12-11T03:45:43.640Z,15.00
2017-12-11T03:46:48.765Z,6.50
2017-12-11T03:47:52.925Z,9.50
2017-12-11T03:48:57.107Z,11.50
2017-12-11T03:50:01.751Z,15.00
2017-12-11T03:51:06.969Z,17.00
2017-12-11T03:52:11.252Z,16.50
2017-12-11T03:53:15.649Z,13.00
2017-12-11T03:54:19.886Z,12.00
2017-12-11T03:55:24.105Z,11.00
2017-12-11T03:56:28.774Z,10.50
2017-12-11T03:57:32.980Z,17.50
2017-12-11T03:58:37.228Z,11.50
2017-12-11T03:59:41.519Z,14.00
2017-12-11T04:00:46.406Z,13.50
2017-12-11T04:01:50.632Z,12.00
2017-12-11T04:02:55.253Z,19.00
2017-12-11T04:03:59.496Z,17.50
2017-12-11T04:05:03.659Z,14.50
2017-12-11T04:06:08.522Z,6.50
2017-12-11T04:07:12.688Z,11.50
2017-12-11T04:08:16.901Z,12.00
2017-12-11T04:09:21.117Z,14.00
2017-12-11T04:10:25.477Z,16.00
2017-12-11T04:11:29.736Z,12.00
2017-12-11T04:12:34.075Z,11.50
2017-12-11T04:13:38.444Z,13.50
2017-12-11T04:14:42.654Z,16.00
2017-12-11T04:15:48.101Z,14.50
2017-12-11T04:16:52.762Z,8.50
2017-12-11T04:17:57.331Z,13.00
2017-12-11T04:19:01.788Z,11.50
2017-12-11T04:20:06.005Z,15.50
2017-12-11T04:21:11.323Z,15.50
2017-12-11T04:22:15.856Z,12.50
2017-12-11T04:23:20.142Z,14.50
2017-12-11T04:24:24.368Z,10.00
2017-12-11T04:25:28.601Z,17.50
2017-12-11T04:26:32.889Z,12.50
2017-12-11T04:27:37.103Z,13.00
2017-12-11T04:28:41.653Z,15.50
2017-12-11T04:29:45.891Z,12.50
2017-12-11T04:30:50.433Z,19.00
2017-12-11T04:31:54.716Z,8.00
2017-12-11T04:32:58.931Z,20.50
2017-12-11T04:34:03.501Z,16.50
2017-12-11T04:35:08.568Z,17.50
2017-12-11T04:36:12.935Z,20.00
2017-12-11T04:37:17.176Z,10.50
2017-12-11T04:38:21.381Z,20.50
2017-12-11T04:39:25.629Z,21.50
2017-12-11T04:40:30.148Z,18.50
2017-12-11T04:41:34.461Z,15.50
2017-12-11T04:42:38.787Z,14.00
2017-12-11T04:43:42.991Z,14.50
2017-12-11T04:44:47.205Z,15.00
2017-12-11T04:45:51.855Z,22.00
2017-12-11T04:46:56.373Z,14.00
2017-12-11T04:48:00.715Z,19.50
2017-12-11T04:49:05.066Z,16.00
2017-12-11T04:50:09.354Z,18.00
2017-12-11T04:51:13.565Z,15.00
2017-12-11T04:52:17.843Z,16.50
2017-12-11T04:53:22.428Z,12.50
2017-12-11T04:54:26.747Z,16.00
2017-12-11T04:55:31.009Z,12.50
2017-12-11T04:56:35.353Z,14.50
2017-12-11T04:57:39.532Z,16.50
2017-12-11T04:58:43.820Z,12.00
2017-12-11T04:59:48.144Z,16.00
2017-12-11T05:00:52.785Z,13.50
2017-12-11T05:01:57.390Z,19.00
2017-12-11T05:03:01.802Z,20.50
2017-12-11T05:04:06.029Z,17.50
2017-12-11T05:05:10.279Z,18.00
2017-12-11T05:06:14.929Z,19.50
2017-12-11T05:07:19.173Z,15.50
2017-12-11T05:08:23.457Z,16.00
2017-12-11T05:09:27.672Z,12.00
2017-12-11T05:10:31.929Z,15.00
2017-12-11T05:11:36.189Z,14.00
2017-12-11T05:12:40.718Z,18.00
2017-12-11T05:13:45.963Z,17.00
2017-12-11T05:14:50.164Z,18.00
2017-12-11T05:15:54.749Z,20.50
2017-12-11T05:16:58.957Z,17.50
2017-12-11T05:18:03.286Z,14.00
2017-12-11T05:19:07.803Z,11.00
2017-12-11T05:20:12.011Z,14.00
2017-12-11T05:21:16.296Z,15.00
2017-12-11T05:22:20.528Z,21.00
2017-12-11T05:23:24.832Z,14.00
2017-12-11T05:24:29.439Z,19.00
2017-12-11T05:25:33.720Z,16.50
2017-12-11T05:26:38.073Z,15.00
2017-12-11T05:27:42.312Z,15.50
2017-12-11T05:28:46.522Z,14.00
2017-12-11T05:29:50.756Z,12.00
2017-12-11T05:30:55.460Z,13.50
2017-12-11T05:31:59.787Z,11.50
2017-12-11T05:33:05.104Z,12.00
2017-12-11T05:34:09.440Z,14.00
2017-12-11T05:35:13.837Z,16.00
2017-12-11T05:36:18.186Z,15.00
2017-12-11T05:37:22.766Z,16.50
2017-12-11T05:38:27.030Z,12.00
2017-12-11T05:39:31.247Z,12.50
2017-12-11T05:40:35.561Z,11.00
2017-12-11T05:41:39.912Z,14.50
2017-12-11T05:42:45.004Z,16.00
2017-12-11T05:43:49.649Z,19.50
2017-12-11T05:44:53.937Z,14.00
2017-12-11T05:45:58.621Z,20.00
2017-12-11T05:47:02.914Z,17.00
2017-12-11T05:48:07.789Z,20.00
2017-12-11T05:49:12.196Z,17.00
2017-12-11T05:51:30.155Z,26.00
2017-12-11T05:52:34.867Z,24.00
2017-12-11T05:53:39.255Z,17.00
2017-12-11T05:54:43.537Z,19.50
2017-12-11T05:55:49.177Z,16.00
2017-12-11T05:56:53.529Z,18.50
2017-12-11T05:58:04.983Z,16.00
2017-12-11T05:59:09.394Z,19.00
2017-12-11T06:00:15.837Z,14.50
2017-12-11T06:01:20.318Z,14.50
2017-12-11T06:02:24.895Z,11.50
2017-12-11T06:03:29.124Z,22.00
2017-12-11T06:04:33.457Z,12.50
2017-12-11T06:05:37.754Z,20.50
2017-12-11T06:06:42.219Z,19.00
2017-12-11T06:07:46.463Z,22.50
2017-12-11T06:08:51.014Z,17.00
2017-12-11T06:09:55.345Z,15.50
2017-12-11T06:10:59.727Z,17.00
2017-12-11T06:12:04.787Z,18.00
2017-12-11T06:13:09.001Z,18.50
2017-12-11T06:14:13.307Z,19.50
2017-12-11T06:15:17.856Z,30.50
2017-12-11T06:16:22.058Z,18.00
2017-12-11T06:17:26.299Z,22.00
2017-12-11T06:18:30.525Z,20.00
2017-12-11T06:19:34.928Z,21.00
2017-12-11T06:20:39.252Z,19.50
2017-12-11T06:21:44.835Z,21.00
2017-12-11T06:22:49.194Z,22.00
2017-12-11T06:23:53.432Z,19.00
2017-12-11T06:24:57.749Z,21.50
2017-12-11T06:26:02.066Z,26.00
2017-12-11T06:27:07.056Z,27.00
2017-12-11T06:28:11.661Z,24.50
2017-12-11T06:29:16.012Z,25.00
2017-12-11T06:30:20.380Z,27.50
2017-12-11T06:31:24.641Z,30.50
2017-12-11T06:32:28.902Z,25.00
2017-12-11T06:33:33.176Z,28.50
2017-12-11T06:34:38.311Z,20.00
2017-12-11T06:35:42.984Z,31.00
2017-12-11T06:36:47.224Z,25.00
2017-12-11T06:37:51.489Z,25.00
2017-12-11T06:38:55.725Z,22.00
2017-12-11T06:40:00.113Z,24.00
2017-12-11T06:41:05.540Z,30.00
2017-12-11T06:42:09.830Z,28.00
2017-12-11T06:43:14.045Z,26.50
2017-12-11T06:44:18.453Z,24.00
2017-12-11T06:45:22.704Z,29.50
2017-12-11T06:46:27.244Z,26.50
2017-12-11T06:47:31.793Z,21.00
2017-12-11T06:48:36.147Z,28.50
2017-12-11T06:49:40.584Z,21.50
2017-12-11T06:50:45.637Z,26.00
2017-12-11T06:51:49.984Z,28.00
2017-12-11T06:52:54.270Z,26.50
2017-12-11T06:53:58.904Z,29.50
2017-12-11T06:55:03.284Z,27.00
2017-12-11T06:56:08.388Z,28.50
2017-12-11T06:57:12.673Z,27.00
2017-12-11T06:58:16.915Z,22.50
2017-12-11T06:59:21.340Z,31.50
2017-12-11T07:00:26.041Z,38.50
2017-12-11T07:01:30.438Z,29.00
2017-12-11T07:02:35.113Z,33.00
2017-12-11T07:03:39.479Z,30.50
2017-12-11T07:04:44.590Z,30.00
2017-12-11T07:05:49.139Z,30.00
2017-12-11T07:06:53.531Z,22.00
2017-12-11T07:07:57.868Z,29.00
2017-12-11T07:09:02.188Z,28.50
2017-12-11T07:10:07.631Z,28.00
2017-12-11T07:11:11.991Z,25.00
2017-12-11T07:12:16.439Z,29.00
2017-12-11T07:13:20.746Z,32.50
2017-12-11T07:14:25.171Z,24.50
2017-12-11T07:15:29.830Z,33.50
2017-12-11T07:16:34.168Z,24.50
2017-12-11T07:17:38.465Z,24.00
2017-12-11T07:18:44.304Z,26.50
2017-12-11T07:19:48.701Z,23.50
2017-12-11T07:20:53.078Z,30.50
2017-12-11T07:21:57.426Z,29.50
2017-12-11T07:23:01.772Z,23.00
2017-12-11T07:24:06.094Z,22.50
2017-12-11T07:25:10.705Z,26.00
2017-12-11T07:26:15.119Z,30.00
2017-12-11T07:27:19.377Z,31.50
2017-12-11T07:28:23.790Z,29.50
2017-12-11T07:29:29.138Z,20.50
2017-12-11T07:30:33.595Z,32.00
2017-12-11T07:31:38.384Z,27.00
2017-12-11T07:32:43.996Z,24.50
2017-12-11T07:33:54.923Z,19.50
2017-12-11T07:34:59.296Z,27.00
2017-12-11T07:36:03.691Z,27.50
2017-12-11T07:37:08.018Z,23.00
2017-12-11T07:38:12.838Z,18.00
2017-12-11T07:39:17.177Z,21.00
2017-12-11T07:40:21.491Z,20.00
2017-12-11T07:41:25.933Z,27.50
2017-12-11T07:42:30.205Z,21.50
2017-12-11T07:43:34.586Z,25.00
2017-12-11T07:44:39.210Z,17.00
2017-12-11T07:45:43.821Z,38.00
2017-12-11T07:46:48.198Z,19.00
2017-12-11T07:47:52.455Z,24.00
2017-12-11T07:48:56.808Z,21.00
2017-12-11T07:50:01.088Z,41.50
2017-12-11T07:51:05.731Z,25.50
2017-12-11T07:52:10.057Z,29.50
2017-12-11T07:53:14.427Z,16.50
2017-12-11T07:54:18.811Z,29.50
2017-12-11T07:55:23.072Z,28.00
2017-12-11T07:56:27.370Z,22.00
2017-12-11T07:57:31.610Z,27.00
2017-12-11T07:58:36.008Z,26.00
2017-12-11T07:59:40.378Z,31.50
2017-12-11T08:00:45.274Z,29.50
2017-12-11T08:01:50.249Z,21.50
2017-12-11T08:02:54.527Z,21.50
2017-12-11T08:03:59.204Z,22.00
2017-12-11T08:05:03.472Z,19.50
2017-12-11T08:06:07.739Z,20.00
2017-12-11T08:07:12.050Z,19.50
2017-12-11T08:08:16.227Z,22.00
2017-12-11T08:09:20.585Z,23.00
2017-12-11T08:10:25.460Z,20.00
2017-12-11T08:11:29.998Z,17.00
2017-12-11T08:12:34.357Z,18.50
2017-12-11T08:13:38.639Z,20.50
2017-12-11T08:14:43.723Z,19.00
2017-12-11T08:15:48.316Z,24.50
2017-12-11T08:16:52.537Z,20.00
2017-12-11T08:17:56.761Z,18.00
2017-12-11T08:19:01.003Z,18.50
2017-12-11T08:20:05.972Z,23.50
2017-12-11T08:21:10.414Z,27.50
2017-12-11T08:22:14.894Z,19.00
2017-12-11T08:23:19.296Z,21.50
2017-12-11T08:24:23.605Z,21.00
2017-12-11T08:25:28.054Z,20.50
2017-12-11T08:26:32.437Z,15.50
2017-12-11T08:27:37.431Z,21.50
2017-12-11T08:28:42.057Z,15.50
2017-12-11T08:29:46.430Z,19.50
2017-12-11T08:30:50.950Z,26.00
2017-12-11T08:31:55.217Z,18.00
2017-12-11T08:32:59.457Z,24.00
2017-12-11T08:34:10.297Z,12.50
2017-12-11T08:35:14.588Z,15.50
2017-12-11T08:36:18.935Z,17.00
2017-12-11T08:37:23.138Z,23.50
2017-12-11T08:38:27.422Z,20.50
2017-12-11T08:39:31.748Z,23.50
2017-12-11T08:40:36.448Z,27.50
2017-12-11T08:41:40.679Z,23.00
2017-12-11T08:42:47.064Z,20.00
2017-12-11T08:43:54.004Z,23.00
2017-12-11T08:44:58.236Z,21.50
2017-12-11T08:46:02.708Z,25.50
2017-12-11T08:47:08.079Z,24.50
2017-12-11T08:48:12.534Z,23.00
2017-12-11T08:49:16.771Z,14.50
2017-12-11T08:50:21.136Z,17.00
2017-12-11T08:51:25.505Z,29.00
2017-12-11T08:52:30.960Z,26.50
2017-12-11T08:53:36.624Z,24.50
2017-12-11T08:54:41.209Z,26.50
2017-12-11T08:55:46.118Z,26.00
2017-12-11T08:56:56.953Z,24.00
2017-12-11T08:58:01.323Z,25.50
2017-12-11T08:59:08.282Z,31.50
2017-12-11T09:00:15.559Z,33.00
2017-12-11T09:01:20.058Z,35.00
2017-12-11T09:02:26.805Z,24.00
2017-12-11T09:03:31.125Z,20.00
2017-12-11T09:04:35.466Z,22.00
2017-12-11T09:05:40.277Z,19.00
2017-12-11T09:06:45.274Z,22.00
2017-12-11T09:07:49.527Z,17.50
2017-12-11T09:08:54.765Z,14.00
2017-12-11T09:09:59.516Z,20.50
2017-12-11T09:11:04.614Z,14.00
2017-12-11T09:12:10.152Z,15.00
2017-12-11T09:13:14.637Z,13.00
2017-12-11T09:14:19.151Z,23.00
2017-12-11T09:15:23.793Z,32.50
2017-12-11T09:16:28.188Z,29.00
2017-12-11T09:17:32.583Z,15.00
2017-12-11T09:18:36.940Z,22.50
2017-12-11T09:19:41.261Z,19.00
2017-12-11T09:20:46.220Z,18.00
2017-12-11T09:21:50.485Z,10.00
2017-12-11T09:22:54.735Z,13.00
2017-12-11T09:23:59.787Z,20.50
2017-12-11T09:25:04.439Z,12.00
2017-12-11T09:26:09.415Z,12.50
2017-12-11T09:27:13.817Z,20.00
2017-12-11T09:28:18.796Z,22.00
2017-12-11T09:29:26.345Z,21.00
2017-12-11T09:30:30.839Z,26.50
2017-12-11T09:31:35.778Z,21.00
2017-12-11T09:32:40.140Z,24.00
2017-12-11T09:33:44.998Z,21.00
2017-12-11T09:34:49.376Z,25.50
2017-12-11T09:37:05.777Z,25.00
2017-12-11T09:38:10.379Z,15.50
2017-12-11T09:39:14.717Z,16.50
2017-12-11T09:40:18.925Z,15.00
2017-12-11T09:41:23.207Z,16.50
2017-12-11T09:42:27.450Z,15.50
2017-12-11T09:43:31.698Z,19.00
2017-12-11T09:44:36.608Z,16.00
2017-12-11T09:45:41.005Z,27.50
2017-12-11T09:46:45.367Z,20.00
2017-12-11T09:47:49.652Z,17.00
2017-12-11T09:48:53.938Z,10.00
2017-12-11T09:49:58.417Z,15.50
2017-12-11T09:51:03.025Z,16.50
2017-12-11T09:52:07.363Z,20.50
2017-12-11T09:53:11.682Z,17.50
2017-12-11T09:54:15.949Z,15.00
2017-12-11T09:55:20.281Z,14.00
2017-12-11T09:56:25.010Z,23.50
2017-12-11T09:57:29.369Z,27.50
2017-12-11T09:58:33.712Z,22.50
2017-12-11T09:59:38.050Z,7.00
2017-12-11T10:00:42.452Z,22.50
2017-12-11T10:01:46.765Z,14.50
2017-12-11T10:02:51.624Z,24.50
2017-12-11T10:03:56.012Z,13.00
2017-12-11T10:05:00.898Z,14.00
2017-12-11T10:06:05.222Z,27.50
2017-12-11T10:07:09.558Z,11.00
2017-12-11T10:08:13.754Z,24.00
2017-12-11T10:09:18.421Z,16.50
2017-12-11T10:10:22.738Z,19.00
2017-12-11T10:11:26.998Z,20.00
2017-12-11T10:12:31.362Z,19.00
2017-12-11T10:13:35.640Z,16.00
2017-12-11T10:14:39.981Z,17.50
2017-12-11T10:15:45.539Z,30.50
2017-12-11T10:16:51.179Z,18.00
2017-12-11T10:17:55.492Z,33.50
2017-12-11T10:19:00.065Z,23.00
2017-12-11T10:20:04.354Z,19.50
2017-12-11T10:21:08.606Z,19.00
2017-12-11T10:22:12.971Z,18.00
2017-12-11T10:23:17.287Z,18.50
2017-12-11T10:24:21.579Z,17.00
2017-12-11T10:25:26.650Z,29.00
2017-12-11T10:26:30.942Z,26.50
2017-12-11T10:27:35.652Z,28.50
2017-12-11T10:28:39.956Z,23.50
2017-12-11T10:29:44.864Z,22.00
2017-12-11T10:30:49.746Z,22.00
2017-12-11T10:31:55.209Z,32.50
2017-12-11T10:32:59.668Z,30.00
2017-12-11T10:34:05.590Z,26.00
2017-12-11T10:35:09.818Z,17.50
2017-12-11T10:36:14.098Z,14.50
2017-12-11T10:37:18.380Z,20.00
2017-12-11T10:38:22.643Z,24.00
2017-12-11T10:39:26.908Z,21.00
2017-12-11T10:40:31.729Z,13.00
2017-12-11T10:41:36.026Z,14.50
2017-12-11T10:42:40.375Z,18.50
2017-12-11T10:43:44.600Z,11.50
2017-12-11T10:44:48.888Z,15.00
2017-12-11T10:45:53.467Z,22.50
2017-12-11T10:46:57.795Z,18.00
2017-12-11T10:48:02.264Z,19.00
2017-12-11T10:49:06.607Z,15.00
2017-12-11T10:50:10.885Z,17.00
2017-12-11T10:51:15.258Z,14.00
2017-12-11T10:52:20.881Z,18.00
2017-12-11T10:53:25.302Z,21.00
2017-12-11T10:54:29.657Z,14.00
2017-12-11T10:55:33.980Z,18.50
2017-12-11T10:56:38.353Z,10.00
2017-12-11T10:57:42.665Z,15.50
2017-12-11T10:58:47.257Z,16.00
2017-12-11T10:59:51.542Z,14.50
2017-12-11T11:00:56.251Z,19.00
2017-12-11T11:02:00.586Z,10.00
2017-12-11T11:03:04.904Z,23.00
2017-12-11T11:04:09.306Z,12.50
2017-12-11T11:05:13.867Z,14.50
2017-12-11T11:06:18.161Z,11.50
2017-12-11T11:07:22.462Z,18.00
2017-12-11T11:08:26.750Z,19.50
2017-12-11T11:09:31.127Z,30.00
2017-12-11T11:10:35.458Z,13.00
2017-12-11T11:11:40.067Z,18.50
2017-12-11T11:12:45.058Z,20.00
2017-12-11T11:13:49.316Z,17.00
2017-12-11T11:14:53.604Z,24.00
2017-12-11T11:15:58.778Z,25.00
2017-12-11T11:17:03.235Z,30.50
2017-12-11T11:18:08.460Z,23.00
2017-12-11T11:19:12.748Z,15.00
2017-12-11T11:20:17.107Z,27.50
2017-12-11T11:21:21.572Z,31.50
2017-12-11T11:22:25.876Z,33.00
2017-12-11T11:23:30.624Z,28.50
2017-12-11T11:24:35.075Z,27.00
2017-12-11T11:25:39.481Z,29.50
2017-12-11T11:26:45.013Z,19.50
2017-12-11T11:27:49.340Z,19.50
2017-12-11T11:28:53.665Z,28.00
2017-12-11T11:29:58.228Z,24.00
2017-12-11T11:31:02.595Z,27.50
2017-12-11T11:32:07.653Z,23.50
2017-12-11T11:33:11.928Z,25.50
2017-12-11T11:34:16.166Z,18.50
2017-12-11T11:35:20.446Z,18.50
2017-12-11T11:36:25.051Z,27.50
2017-12-11T11:37:29.398Z,19.50
2017-12-11T11:38:33.704Z,21.00
2017-12-11T11:39:38.088Z,17.00
2017-12-11T11:40:42.495Z,20.00
2017-12-11T11:41:46.756Z,24.00
2017-12-11T11:42:51.041Z,22.00
2017-12-11T11:43:55.348Z,25.00
2017-12-11T11:44:59.704Z,22.00
2017-12-11T11:46:04.325Z,28.00
2017-12-11T11:47:08.675Z,20.50
2017-12-11T11:48:12.965Z,24.00
2017-12-11T11:49:17.536Z,23.00
2017-12-11T11:50:21.876Z,18.50
2017-12-11T11:51:26.156Z,29.50
2017-12-11T11:52:30.521Z,26.50
2017-12-11T11:53:34.843Z,24.00
2017-12-11T11:54:39.453Z,26.50
2017-12-11T11:55:44.692Z,24.00
2017-12-11T11:56:48.999Z,26.50
2017-12-11T11:57:53.268Z,29.00
2017-12-11T11:58:57.648Z,30.00
2017-12-11T12:00:03.377Z,28.00
2017-12-11T12:01:09.952Z,16.50
2017-12-11T12:02:14.623Z,29.50
2017-12-11T12:03:18.898Z,24.00
2017-12-11T12:04:23.105Z,28.50
2017-12-11T12:05:27.463Z,27.50
2017-12-11T12:06:31.697Z,31.50
2017-12-11T12:07:36.355Z,25.00
2017-12-11T12:08:40.597Z,21.00
2017-12-11T12:09:44.894Z,29.00
2017-12-11T12:10:49.320Z,19.00
2017-12-11T12:11:53.643Z,24.00
2017-12-11T12:12:57.964Z,22.50
2017-12-11T12:14:02.560Z,26.50
2017-12-11T12:15:07.366Z,20.00
2017-12-11T12:16:12.011Z,26.00
2017-12-11T12:17:16.363Z,25.00
2017-12-11T12:18:20.616Z,27.50
2017-12-11T12:19:25.286Z,22.00
2017-12-11T12:20:29.947Z,23.00
2017-12-11T12:21:34.402Z,30.50
2017-12-11T12:22:38.801Z,28.50
2017-12-11T12:23:43.075Z,31.50
2017-12-11T12:24:47.470Z,28.00
2017-12-11T12:25:51.809Z,26.00
2017-12-11T12:26:56.481Z,33.50
2017-12-11T12:28:00.767Z,31.50
2017-12-11T12:29:05.742Z,23.00
2017-12-11T12:30:10.314Z,24.00
2017-12-11T12:31:14.818Z,38.50
2017-12-11T12:32:19.542Z,32.50
2017-12-11T12:33:23.780Z,29.50
2017-12-11T12:34:28.092Z,29.00
2017-12-11T12:35:32.310Z,33.50
2017-12-11T12:36:36.689Z,24.50
2017-12-11T12:37:40.959Z,25.00
2017-12-11T12:38:46.113Z,22.50
2017-12-11T12:39:50.810Z,23.50
2017-12-11T12:40:55.187Z,22.50
2017-12-11T12:41:59.530Z,32.00
2017-12-11T12:43:04.617Z,25.50
2017-12-11T12:44:08.900Z,24.00
2017-12-11T12:45:14.980Z,27.00
2017-12-11T12:46:19.646Z,27.50
2017-12-11T12:47:23.902Z,29.50
2017-12-11T12:48:28.211Z,28.00
2017-12-11T12:49:32.578Z,23.50
2017-12-11T12:50:37.521Z,28.00
2017-12-11T12:51:41.845Z,31.00
2017-12-11T12:52:46.582Z,26.50
2017-12-11T12:53:50.857Z,32.00
2017-12-11T12:54:55.077Z,26.50
2017-12-11T12:55:59.476Z,30.50
2017-12-11T12:57:03.838Z,31.50
2017-12-11T12:58:09.168Z,21.00
2017-12-11T12:59:15.623Z,23.50
2017-12-11T13:00:21.325Z,39.00
2017-12-11T13:01:25.639Z,20.50
2017-12-11T13:02:30.026Z,27.00
2017-12-11T13:03:34.320Z,21.00
2017-12-11T13:04:39.160Z,26.00
2017-12-11T13:05:43.509Z,25.00
2017-12-11T13:06:47.873Z,23.50
2017-12-11T13:07:52.138Z,25.50
2017-12-11T13:08:56.539Z,26.00
2017-12-11T13:10:00.850Z,21.50
2017-12-11T13:11:05.572Z,21.00
2017-12-11T13:12:09.872Z,26.50
2017-12-11T13:13:14.242Z,27.50
2017-12-11T13:14:18.527Z,22.50
2017-12-11T13:15:23.249Z,30.50
2017-12-11T13:16:27.551Z,16.00
2017-12-11T13:17:32.195Z,20.50
2017-12-11T13:18:36.695Z,36.00
2017-12-11T13:19:41.312Z,27.00
2017-12-11T13:20:45.634Z,20.00
2017-12-11T13:21:50.014Z,27.50
2017-12-11T13:22:54.351Z,24.50
2017-12-11T13:23:58.720Z,25.50
2017-12-11T13:25:03.313Z,29.00
2017-12-11T13:26:08.504Z,28.00
2017-12-11T13:27:12.899Z,39.00
2017-12-11T13:28:17.150Z,27.50
2017-12-11T13:29:21.412Z,39.50
2017-12-11T13:30:26.268Z,37.00
2017-12-11T13:31:30.525Z,30.00
2017-12-11T13:32:34.815Z,26.50
2017-12-11T13:33:39.659Z,31.50
2017-12-11T13:34:44.514Z,31.00
2017-12-11T13:35:49.123Z,27.50
2017-12-11T13:36:56.025Z,22.00
2017-12-11T13:38:00.434Z,30.00
2017-12-11T13:39:06.329Z,15.50
2017-12-11T13:40:10.620Z,20.00
2017-12-11T13:41:17.884Z,29.00
2017-12-11T13:42:22.423Z,21.50
2017-12-11T13:43:27.716Z,27.50
2017-12-11T13:44:32.352Z,22.50
2017-12-11T13:45:37.244Z,25.00
2017-12-11T13:46:44.303Z,22.00
2017-12-11T13:47:48.816Z,14.50
2017-12-11T13:49:04.030Z,23.50
2017-12-11T13:50:09.651Z,20.50
2017-12-11T13:51:15.333Z,22.50
2017-12-11T13:52:19.759Z,22.00
2017-12-11T13:53:25.760Z,26.00
2017-12-11T13:54:30.421Z,21.50
2017-12-11T13:55:34.873Z,26.00